createdAt,value
2023-05-15T00:01:01.061Z,20088.22
2023-05-15T00:03:29.482Z,20076.03
2023-05-15T00:05:57.799Z,20061.78
2023-05-15T00:08:26.020Z,20059.75
2023-05-15T00:11:01.654Z,20061.78
2023-05-15T00:13:30.450Z,20055.69
2023-05-15T00:15:58.690Z,20055.69
2023-05-15T00:18:27.213Z,20037.41
2023-05-15T00:20:55.587Z,20057.72
2023-05-15T00:23:23.740Z,20069.94
2023-05-15T00:25:52.120Z,20049.59
2023-05-15T00:28:21.583Z,20061.78
2023-05-15T00:30:49.748Z,20039.44
2023-05-15T00:33:17.831Z,20002.84
2023-05-15T00:35:46.238Z,19978.47
2023-05-15T00:38:14.372Z,20039.44
2023-05-15T00:40:44.771Z,19980.50
2023-05-15T00:43:13.596Z,19994.72
2023-05-15T00:45:44.418Z,20019.13
2023-05-15T00:48:13.826Z,20013.00
2023-05-15T00:50:43.621Z,19996.75
2023-05-15T00:53:12.242Z,19994.72
2023-05-15T00:55:43.202Z,20017.09
2023-05-15T00:58:12.363Z,20029.28
2023-05-15T01:00:42.012Z,20039.44
2023-05-15T01:03:10.470Z,20047.56
2023-05-15T01:05:38.875Z,20047.56
2023-05-15T01:08:22.546Z,20019.13
2023-05-15T01:10:52.615Z,19998.78
2023-05-15T01:13:23.483Z,20045.53
2023-05-15T01:15:53.059Z,20029.28
2023-05-15T01:18:21.522Z,20041.47
2023-05-15T01:21:21.529Z,20039.44
2023-05-15T01:24:12.504Z,20013.00
2023-05-15T01:27:16.245Z,20027.25
2023-05-15T01:30:01.381Z,20041.47
2023-05-15T01:32:39.171Z,20019.13
2023-05-15T01:35:17.535Z,20031.31
2023-05-15T01:37:51.973Z,20019.13
2023-05-15T01:40:26.673Z,20021.16
2023-05-15T01:43:04.915Z,19996.75
2023-05-15T01:45:35.126Z,19988.63
2023-05-15T01:48:09.630Z,19994.72
2023-05-15T01:50:41.660Z,20000.81
2023-05-15T01:53:12.218Z,19960.16
2023-05-15T01:55:41.717Z,19974.41
2023-05-15T01:58:12.223Z,19976.44
2023-05-15T02:00:42.622Z,19968.31
2023-05-15T02:03:11.808Z,20010.97
2023-05-15T02:05:40.220Z,19992.69
2023-05-15T02:08:09.555Z,20049.59
2023-05-15T02:10:38.014Z,19978.47
2023-05-15T02:13:08.386Z,19980.50
2023-05-15T02:15:39.434Z,19947.97
2023-05-15T02:18:07.684Z,19947.97
2023-05-15T02:20:35.874Z,19917.50
2023-05-15T02:23:04.003Z,19919.53
2023-05-15T02:25:47.911Z,19925.63
2023-05-15T02:28:29.657Z,19939.84
2023-05-15T02:31:09.234Z,19958.13
2023-05-15T02:33:53.269Z,19958.13
2023-05-15T02:36:28.802Z,19931.72
2023-05-15T02:39:00.006Z,19962.19
2023-05-15T02:41:29.201Z,19943.91
2023-05-15T02:44:00.183Z,19968.31
2023-05-15T02:46:31.220Z,20002.84
2023-05-15T02:49:00.655Z,19935.78
2023-05-15T02:51:29.002Z,19939.84
2023-05-15T02:53:59.135Z,19935.78
2023-05-15T02:56:27.257Z,19929.69
2023-05-15T02:58:55.688Z,19927.66
2023-05-15T03:01:23.908Z,19943.91
2023-05-15T03:03:53.700Z,19937.81
2023-05-15T03:06:21.816Z,19925.63
2023-05-15T03:08:49.920Z,19956.09
2023-05-15T03:11:19.229Z,19947.97
2023-05-15T03:13:47.370Z,19941.88
2023-05-15T03:16:15.469Z,19899.19
2023-05-15T03:18:43.577Z,19919.53
2023-05-15T03:21:13.863Z,19919.53
2023-05-15T03:23:41.976Z,19929.69
2023-05-15T03:26:10.075Z,19927.66
2023-05-15T03:28:38.239Z,19937.81
2023-05-15T03:31:08.254Z,19911.41
2023-05-15T03:33:36.384Z,19921.56
2023-05-15T03:36:05.106Z,19901.22
2023-05-15T03:38:34.612Z,19937.81
2023-05-15T03:41:02.763Z,19931.72
2023-05-15T03:43:31.019Z,19952.03
2023-05-15T03:46:00.416Z,19927.66
2023-05-15T03:48:28.613Z,19943.91
2023-05-15T03:50:57.463Z,19980.50
2023-05-15T03:53:25.729Z,19935.78
2023-05-15T03:55:55.465Z,19931.72
2023-05-15T03:58:23.572Z,19956.09
2023-05-15T04:00:51.723Z,19943.91
2023-05-15T04:03:20.002Z,19952.03
2023-05-15T04:05:49.985Z,19982.53
2023-05-15T04:08:18.285Z,19970.34
2023-05-15T04:10:46.409Z,20027.25
2023-05-15T04:13:15.938Z,19972.38
2023-05-15T04:15:44.309Z,20002.84
2023-05-15T04:18:12.428Z,19986.59
2023-05-15T04:20:40.619Z,19994.72
2023-05-15T04:23:08.795Z,20017.09
2023-05-15T04:25:37.513Z,20027.25
2023-05-15T04:28:06.580Z,20010.97
2023-05-15T04:30:36.079Z,19996.75
2023-05-15T04:33:04.219Z,20004.88
2023-05-15T04:35:32.520Z,20051.63
2023-05-15T04:38:00.624Z,20063.81
2023-05-15T04:40:28.783Z,20065.84
2023-05-15T04:42:57.519Z,20141.06
2023-05-15T04:45:25.843Z,20043.50
2023-05-15T04:47:55.480Z,20043.50
2023-05-15T04:50:23.989Z,20114.63
2023-05-15T04:52:52.957Z,20080.09
2023-05-15T04:55:21.173Z,20084.16
2023-05-15T04:57:49.384Z,20120.75
2023-05-15T05:00:18.086Z,20175.63
2023-05-15T05:02:46.304Z,20175.63
2023-05-15T05:05:16.578Z,20151.22
2023-05-15T05:07:46.278Z,20143.09
2023-05-15T05:10:14.587Z,20175.63
2023-05-15T05:12:42.687Z,20143.09
2023-05-15T05:15:12.011Z,20145.13
2023-05-15T05:17:40.178Z,20177.66
2023-05-15T05:20:12.919Z,20191.88
2023-05-15T05:22:42.914Z,20228.47
2023-05-15T05:25:11.727Z,20246.75
2023-05-15T05:27:39.933Z,20279.28
2023-05-15T05:30:09.920Z,20279.28
2023-05-15T05:32:38.081Z,20334.16
2023-05-15T05:35:06.995Z,20291.47
2023-05-15T05:37:35.139Z,20313.84
2023-05-15T05:40:06.621Z,20346.34
2023-05-15T05:42:34.762Z,20307.72
2023-05-15T05:45:02.976Z,20328.06
2023-05-15T05:47:31.123Z,20326.03
2023-05-15T05:49:59.359Z,20334.16
2023-05-15T05:52:29.015Z,20409.38
2023-05-15T05:54:57.157Z,20376.84
2023-05-15T05:57:26.796Z,20387.00
2023-05-15T05:59:54.964Z,20399.19
2023-05-15T06:02:23.145Z,20429.69
2023-05-15T06:04:51.305Z,20452.06
2023-05-15T06:07:19.585Z,20376.84
2023-05-15T06:09:48.720Z,20407.34
2023-05-15T06:12:17.023Z,20415.47
2023-05-15T06:14:46.768Z,20431.72
2023-05-15T06:17:15.378Z,20450.03
2023-05-15T06:19:43.626Z,20496.78
2023-05-15T06:22:11.735Z,20539.47
2023-05-15T06:24:39.938Z,20541.50
2023-05-15T06:27:08.032Z,20545.56
2023-05-15T06:29:36.735Z,20545.56
2023-05-15T06:32:07.175Z,20574.00
2023-05-15T06:34:35.357Z,20529.28
2023-05-15T06:37:03.523Z,20563.84
2023-05-15T06:39:31.643Z,20628.91
2023-05-15T06:42:01.389Z,20598.41
2023-05-15T06:44:31.187Z,20606.53
2023-05-15T06:46:59.769Z,20635.00
2023-05-15T06:49:30.008Z,20626.88
2023-05-15T06:51:58.349Z,20683.78
2023-05-15T06:54:27.212Z,20677.69
2023-05-15T06:56:55.328Z,20702.09
2023-05-15T06:59:23.419Z,20687.84
2023-05-15T07:01:51.674Z,20732.56
2023-05-15T07:04:19.888Z,20734.59
2023-05-15T07:06:49.393Z,20754.94
2023-05-15T07:09:17.489Z,20732.56
2023-05-15T07:11:45.576Z,20769.16
2023-05-15T07:14:13.698Z,20781.38
2023-05-15T07:16:41.807Z,20698.00
2023-05-15T07:19:10.590Z,20693.94
2023-05-15T07:21:40.126Z,20732.56
2023-05-15T07:24:09.830Z,20728.50
2023-05-15T07:26:50.351Z,20769.16
2023-05-15T07:29:25.693Z,20767.13
2023-05-15T07:31:54.048Z,20773.22
2023-05-15T07:34:22.198Z,20870.81
2023-05-15T07:36:50.478Z,20830.16
2023-05-15T07:39:20.032Z,20826.09
2023-05-15T07:41:48.368Z,20860.66
2023-05-15T07:44:16.483Z,20836.25
2023-05-15T07:46:45.566Z,20856.56
2023-05-15T07:49:13.932Z,20874.88
2023-05-15T07:51:42.651Z,20923.66
2023-05-15T07:54:10.927Z,20923.66
2023-05-15T07:56:41.465Z,20956.19
2023-05-15T07:59:09.771Z,20939.94
2023-05-15T08:01:38.052Z,20948.06
2023-05-15T08:04:09.493Z,20923.66
2023-05-15T08:06:39.062Z,20948.06
2023-05-15T08:09:07.362Z,20968.38
2023-05-15T08:11:35.726Z,20992.78
2023-05-15T08:14:05.371Z,21015.16
2023-05-15T08:16:33.733Z,21013.13
2023-05-15T08:19:04.782Z,21053.78
2023-05-15T08:21:33.089Z,21055.81
2023-05-15T08:24:01.844Z,21070.03
2023-05-15T08:26:30.009Z,21094.44
2023-05-15T08:28:58.205Z,21108.66
2023-05-15T08:31:27.736Z,21153.41
2023-05-15T08:33:55.851Z,21159.50
2023-05-15T08:36:24.140Z,21163.56
2023-05-15T08:38:52.329Z,21246.91
2023-05-15T08:41:39.957Z,21194.06
2023-05-15T08:44:11.196Z,21198.13
2023-05-15T08:46:41.494Z,21190.00
2023-05-15T08:49:20.996Z,21212.34
2023-05-15T08:51:49.228Z,21220.47
2023-05-15T08:54:17.936Z,21224.56
2023-05-15T08:56:46.370Z,21269.28
2023-05-15T08:59:14.567Z,21228.63
2023-05-15T09:01:44.217Z,21253.00
2023-05-15T09:04:12.603Z,21285.53
2023-05-15T09:06:44.358Z,21309.94
2023-05-15T09:09:13.568Z,21273.34
2023-05-15T09:11:45.449Z,21314.00
2023-05-15T09:14:13.781Z,21375.00
2023-05-15T09:16:43.408Z,21338.41
2023-05-15T09:19:13.415Z,21348.56
2023-05-15T09:21:41.603Z,21336.38
2023-05-15T09:24:23.429Z,21366.88
2023-05-15T09:27:04.204Z,21342.47
2023-05-15T09:29:34.300Z,21332.31
2023-05-15T09:32:08.766Z,21391.28
2023-05-15T09:34:39.989Z,21442.09
2023-05-15T09:37:11.004Z,21472.59
2023-05-15T09:39:43.202Z,21415.66
2023-05-15T09:42:13.335Z,21431.94
2023-05-15T09:44:43.729Z,21466.50
2023-05-15T09:47:16.795Z,21511.22
2023-05-15T09:49:46.788Z,21525.47
2023-05-15T09:52:17.408Z,21600.69
2023-05-15T09:54:50.118Z,21570.19
2023-05-15T09:57:23.596Z,21488.88
2023-05-15T09:59:52.016Z,21521.41
2023-05-15T10:02:28.122Z,21564.09
2023-05-15T10:04:57.727Z,21525.47
2023-05-15T10:07:33.505Z,21533.59
2023-05-15T10:10:03.241Z,21551.91
2023-05-15T10:12:32.975Z,21558.00
2023-05-15T10:15:02.609Z,21541.72
2023-05-15T10:17:36.092Z,21525.47
2023-05-15T10:20:07.043Z,21525.47
2023-05-15T10:22:42.047Z,21553.94
2023-05-15T10:25:19.702Z,21511.22
2023-05-15T10:27:51.070Z,21535.63
2023-05-15T10:30:21.162Z,21547.81
2023-05-15T10:32:51.227Z,21604.75
2023-05-15T10:35:20.268Z,21619.00
2023-05-15T10:37:50.005Z,21659.66
2023-05-15T10:40:18.881Z,21696.25
2023-05-15T10:42:48.721Z,21722.69
2023-05-15T10:45:17.468Z,21675.94
2023-05-15T10:47:47.461Z,21614.94
2023-05-15T10:50:17.057Z,21602.72
2023-05-15T10:52:45.345Z,21619.00
2023-05-15T10:55:17.795Z,21680.00
2023-05-15T10:57:47.349Z,21647.47
2023-05-15T11:00:27.924Z,21600.69
2023-05-15T11:02:58.673Z,21549.84
2023-05-15T11:05:28.352Z,21568.16
2023-05-15T11:08:27.326Z,21619.00
2023-05-15T11:10:56.198Z,21621.03
2023-05-15T11:13:24.396Z,21635.25
2023-05-15T11:15:52.788Z,21753.19
2023-05-15T11:18:22.009Z,21905.69
2023-05-15T11:21:11.256Z,22011.44
2023-05-15T11:23:41.849Z,21970.78
2023-05-15T11:26:10.148Z,22086.69
2023-05-15T11:28:45.763Z,22050.06
2023-05-15T11:31:14.109Z,22143.63
2023-05-15T11:33:42.552Z,22076.50
2023-05-15T11:36:15.663Z,22159.88
2023-05-15T11:38:44.956Z,22131.41
2023-05-15T11:41:21.677Z,22019.56
2023-05-15T11:43:50.192Z,21926.03
2023-05-15T11:46:18.875Z,21871.13
2023-05-15T11:48:48.793Z,21802.00
2023-05-15T11:51:21.823Z,21732.84
2023-05-15T11:53:53.122Z,21667.78
2023-05-15T11:56:22.865Z,21580.34
2023-05-15T11:58:52.277Z,21470.56
2023-05-15T12:01:20.465Z,21484.78
2023-05-15T12:03:50.376Z,21446.16
2023-05-15T12:06:20.394Z,21478.69
2023-05-15T12:08:53.835Z,21501.06
2023-05-15T12:11:23.983Z,21549.84
2023-05-15T12:13:54.058Z,21525.47
2023-05-15T12:16:26.858Z,21568.16
2023-05-15T12:18:55.147Z,21582.38
2023-05-15T12:21:24.677Z,21682.03
2023-05-15T12:24:06.473Z,21802.00
2023-05-15T12:26:36.412Z,21832.50
2023-05-15T12:29:06.173Z,21944.34
2023-05-15T12:31:36.600Z,22052.09
2023-05-15T12:34:05.273Z,22168.03
2023-05-15T12:36:34.819Z,22200.56
2023-05-15T12:39:09.019Z,22224.97
2023-05-15T12:41:39.236Z,22125.31
2023-05-15T12:44:07.325Z,22135.47
2023-05-15T12:46:36.081Z,22151.75
2023-05-15T12:49:04.512Z,22139.56
2023-05-15T12:51:33.997Z,22204.63
2023-05-15T12:54:04.171Z,22202.59
2023-05-15T12:56:32.305Z,22157.84
2023-05-15T12:59:01.236Z,22119.22
2023-05-15T13:01:30.434Z,22102.94
2023-05-15T13:03:59.646Z,22111.09
2023-05-15T13:06:38.251Z,22041.94
2023-05-15T13:09:15.837Z,22009.41
2023-05-15T13:11:45.858Z,22001.28
2023-05-15T13:14:18.335Z,21944.34
2023-05-15T13:16:48.243Z,21958.56
2023-05-15T13:19:17.377Z,21899.59
2023-05-15T13:21:45.990Z,21879.25
2023-05-15T13:24:15.940Z,21871.13
2023-05-15T13:26:44.073Z,21936.19
2023-05-15T13:29:12.193Z,21982.97
2023-05-15T13:31:40.370Z,21885.38
2023-05-15T13:34:09.083Z,21785.72
2023-05-15T13:36:37.783Z,21651.53
2023-05-15T13:39:06.509Z,21562.06
2023-05-15T13:41:37.899Z,21411.59
2023-05-15T13:44:06.382Z,21375.00
2023-05-15T13:46:34.627Z,21263.19
2023-05-15T13:49:02.763Z,21129.00
2023-05-15T13:51:30.983Z,20970.41
2023-05-15T13:53:59.103Z,20880.97
2023-05-15T13:56:27.476Z,20860.66
2023-05-15T13:58:56.914Z,20807.78
2023-05-15T14:01:25.114Z,20748.84
2023-05-15T14:03:54.015Z,20756.97
2023-05-15T14:06:22.212Z,20838.28
2023-05-15T14:08:50.332Z,20891.13
2023-05-15T14:11:18.573Z,20899.28
2023-05-15T14:13:47.309Z,20923.66
2023-05-15T14:16:16.840Z,20946.03
2023-05-15T14:18:45.559Z,21029.38
2023-05-15T14:21:13.772Z,21135.09
2023-05-15T14:23:41.909Z,21200.16
2023-05-15T14:26:10.187Z,21311.97
2023-05-15T14:28:38.585Z,21350.59
2023-05-15T14:31:06.874Z,21377.03
2023-05-15T14:33:36.397Z,21442.09
2023-05-15T14:36:05.060Z,21509.19
2023-05-15T14:38:33.453Z,21543.75
2023-05-15T14:41:01.600Z,21614.94
2023-05-15T14:43:29.981Z,21659.66
2023-05-15T14:45:58.110Z,21688.13
2023-05-15T14:48:26.192Z,21645.44
2023-05-15T14:50:55.732Z,21551.91
2023-05-15T14:53:23.894Z,21545.78
2023-05-15T14:55:51.998Z,21578.31
2023-05-15T14:58:20.129Z,21572.22
2023-05-15T15:00:48.801Z,21505.13
2023-05-15T15:03:17.170Z,21574.25
2023-05-15T15:05:45.438Z,21533.59
2023-05-15T15:08:15.043Z,21517.31
2023-05-15T15:10:43.824Z,21499.03
2023-05-15T15:13:13.797Z,21501.06
2023-05-15T15:15:42.290Z,21513.25
2023-05-15T15:18:10.490Z,21494.97
2023-05-15T15:20:38.785Z,21456.34
2023-05-15T15:23:07.097Z,21368.91
2023-05-15T15:25:36.599Z,21393.31
2023-05-15T15:28:05.013Z,21383.13
2023-05-15T15:30:33.230Z,21429.91
2023-05-15T15:33:01.819Z,21431.94
2023-05-15T15:35:30.124Z,21381.09
2023-05-15T15:37:58.313Z,21407.53
2023-05-15T15:40:26.624Z,21446.16
2023-05-15T15:42:56.421Z,21442.09
2023-05-15T15:45:24.638Z,21470.56
2023-05-15T15:47:52.793Z,21543.75
2023-05-15T15:50:21.246Z,21625.09
2023-05-15T15:52:49.394Z,21619.00
2023-05-15T15:55:17.507Z,21594.59
2023-05-15T15:57:45.631Z,21515.28
2023-05-15T16:00:16.642Z,21450.22
2023-05-15T16:02:46.465Z,21501.06
2023-05-15T16:05:14.949Z,21419.72
2023-05-15T16:07:43.056Z,21458.38
2023-05-15T16:10:13.379Z,21389.22
2023-05-15T16:12:42.811Z,21450.22
2023-05-15T16:15:22.686Z,21358.75
2023-05-15T16:17:54.994Z,21385.16
2023-05-15T16:20:24.055Z,21318.06
2023-05-15T16:22:52.723Z,21301.81
2023-05-15T16:25:21.067Z,21287.56
2023-05-15T16:27:49.191Z,21281.47
2023-05-15T16:30:17.374Z,21230.66
2023-05-15T16:32:46.381Z,21212.34
2023-05-15T16:35:15.910Z,21228.63
2023-05-15T16:37:44.067Z,21307.91
2023-05-15T16:40:13.441Z,21248.94
2023-05-15T16:42:41.612Z,21301.81
2023-05-15T16:45:10.915Z,21295.72
2023-05-15T16:47:41.166Z,21277.41
2023-05-15T16:50:10.494Z,21277.41
2023-05-15T16:52:45.338Z,21287.56
2023-05-15T16:55:16.322Z,21316.03
2023-05-15T16:57:45.530Z,21366.88
2023-05-15T17:00:15.849Z,21344.50
2023-05-15T17:02:44.614Z,21377.03
2023-05-15T17:05:13.970Z,21316.03
2023-05-15T17:07:45.296Z,21346.53
2023-05-15T17:10:14.145Z,21316.03
2023-05-15T17:12:42.274Z,21320.09
2023-05-15T17:15:12.362Z,21277.41
2023-05-15T17:17:40.658Z,21309.94
2023-05-15T17:20:10.474Z,21342.47
2023-05-15T17:22:38.709Z,21342.47
2023-05-15T17:25:09.359Z,21318.06
2023-05-15T17:27:41.156Z,21326.22
2023-05-15T17:30:11.486Z,21297.75
2023-05-15T17:32:40.822Z,21344.50
2023-05-15T17:35:10.197Z,21348.56
2023-05-15T17:37:38.786Z,21338.41
2023-05-15T17:40:10.020Z,21368.91
2023-05-15T17:42:38.254Z,21401.44
2023-05-15T17:45:07.745Z,21372.97
2023-05-15T17:47:35.964Z,21301.81
2023-05-15T17:50:04.203Z,21301.81
2023-05-15T17:52:32.341Z,21214.38
2023-05-15T17:55:00.477Z,21192.03
2023-05-15T17:57:29.930Z,21147.28
2023-05-15T17:59:58.120Z,21143.22
2023-05-15T18:02:26.242Z,21137.13
2023-05-15T18:04:54.460Z,21120.88
2023-05-15T18:07:22.534Z,21110.69
2023-05-15T18:09:51.901Z,21120.88
2023-05-15T18:12:20.023Z,21118.84
2023-05-15T18:14:49.473Z,21141.19
2023-05-15T18:17:18.133Z,21114.75
2023-05-15T18:19:46.277Z,21063.94
2023-05-15T18:22:14.470Z,21084.28
2023-05-15T18:24:42.642Z,21061.91
2023-05-15T18:27:10.833Z,21065.97
2023-05-15T18:29:39.018Z,21049.72
2023-05-15T18:32:09.410Z,21021.25
2023-05-15T18:34:37.527Z,21009.03
2023-05-15T18:37:06.225Z,21059.88
2023-05-15T18:39:34.379Z,21000.91
2023-05-15T18:42:03.053Z,21049.72
2023-05-15T18:44:32.305Z,20996.84
2023-05-15T18:47:00.527Z,21037.50
2023-05-15T18:49:30.748Z,21047.69
2023-05-15T18:51:58.922Z,21021.25
2023-05-15T18:54:28.073Z,21025.31
2023-05-15T18:56:56.204Z,21023.28
2023-05-15T18:59:24.603Z,21053.78
2023-05-15T19:01:53.787Z,21045.63
2023-05-15T19:04:22.251Z,21021.25
2023-05-15T19:06:51.849Z,20966.34
2023-05-15T19:09:20.410Z,21011.09
2023-05-15T19:11:49.533Z,20976.53
2023-05-15T19:14:18.513Z,20972.47
2023-05-15T19:16:47.008Z,20966.34
2023-05-15T19:19:15.398Z,20964.31
2023-05-15T19:21:43.668Z,20966.34
2023-05-15T19:24:13.399Z,20946.03
2023-05-15T19:26:41.496Z,20935.88
2023-05-15T19:29:09.676Z,20929.75
2023-05-15T19:31:38.592Z,20901.31
2023-05-15T19:34:06.926Z,20887.06
2023-05-15T19:36:35.103Z,20854.53
2023-05-15T19:39:03.454Z,20860.66
2023-05-15T19:41:33.042Z,20844.38
2023-05-15T19:44:02.151Z,20807.78
2023-05-15T19:46:30.692Z,20815.91
2023-05-15T19:48:58.924Z,20787.47
2023-05-15T19:51:27.179Z,20809.81
2023-05-15T19:53:56.601Z,20765.09
2023-05-15T19:56:25.313Z,20756.97
2023-05-15T19:58:54.971Z,20763.06
2023-05-15T20:01:23.121Z,20765.09
2023-05-15T20:03:51.365Z,20730.53
2023-05-15T20:06:20.683Z,20769.16
2023-05-15T20:08:49.047Z,20732.56
2023-05-15T20:11:17.171Z,20761.03
2023-05-15T20:13:45.498Z,20728.50
2023-05-15T20:16:16.645Z,20767.13
2023-05-15T20:18:47.931Z,20724.44
2023-05-15T20:21:16.998Z,20742.75
2023-05-15T20:23:45.537Z,20724.44
2023-05-15T20:26:13.697Z,20756.97
2023-05-15T20:28:43.699Z,20746.81
2023-05-15T20:31:15.070Z,20805.75
2023-05-15T20:33:43.426Z,20746.81
2023-05-15T20:36:11.631Z,20767.13
2023-05-15T20:38:40.441Z,20712.25
2023-05-15T20:41:08.580Z,20750.88
2023-05-15T20:43:38.389Z,20667.53
2023-05-15T20:46:09.936Z,20695.97
2023-05-15T20:48:39.482Z,20712.25
2023-05-15T20:51:07.698Z,20649.22
2023-05-15T20:53:35.832Z,20618.72
2023-05-15T20:56:04.200Z,20616.69
2023-05-15T20:58:32.327Z,20671.59
2023-05-15T21:01:01.453Z,20588.25
2023-05-15T21:03:30.414Z,20596.38
2023-05-15T21:06:01.221Z,20563.84
2023-05-15T21:08:29.326Z,20571.97
2023-05-15T21:10:57.454Z,20535.41
2023-05-15T21:13:25.665Z,20539.47
2023-05-15T21:15:53.831Z,20517.09
2023-05-15T21:18:21.965Z,20494.75
2023-05-15T21:20:50.140Z,20563.84
2023-05-15T21:23:20.922Z,20508.97
2023-05-15T21:25:49.165Z,20527.25
2023-05-15T21:28:17.427Z,20488.63
2023-05-15T21:30:45.590Z,20521.16
2023-05-15T21:33:13.748Z,20504.91
2023-05-15T21:35:41.894Z,20482.53
2023-05-15T21:38:10.035Z,20508.97
2023-05-15T21:40:40.087Z,20435.78
2023-05-15T21:43:08.646Z,20498.81
2023-05-15T21:45:36.798Z,20395.13
2023-05-15T21:48:05.282Z,20405.31
2023-05-15T21:50:33.689Z,20447.97
2023-05-15T21:53:01.945Z,20462.22
2023-05-15T21:55:30.093Z,20445.94
2023-05-15T21:57:59.593Z,20391.06
2023-05-15T22:00:28.261Z,20403.25
2023-05-15T22:02:56.711Z,20380.91
2023-05-15T22:05:24.908Z,20403.25
2023-05-15T22:07:53.076Z,20407.34
2023-05-15T22:10:21.194Z,20346.34
2023-05-15T22:12:49.514Z,20350.41
2023-05-15T22:15:19.283Z,20338.22
2023-05-15T22:17:47.920Z,20315.88
2023-05-15T22:20:18.969Z,20309.75
2023-05-15T22:22:47.351Z,20307.72
2023-05-15T22:25:15.468Z,20303.66
2023-05-15T22:27:43.611Z,20285.38
2023-05-15T22:30:12.950Z,20309.75
2023-05-15T22:32:42.569Z,20283.34
2023-05-15T22:35:12.105Z,20287.41
2023-05-15T22:37:40.777Z,20315.88
2023-05-15T22:40:11.086Z,20289.44
2023-05-15T22:42:39.263Z,20260.97
2023-05-15T22:45:09.258Z,20256.91
2023-05-15T22:47:37.498Z,20265.03
2023-05-15T22:50:09.281Z,20285.38
2023-05-15T22:52:38.110Z,20265.03
2023-05-15T22:55:07.539Z,20240.66
2023-05-15T22:57:35.665Z,20254.88
2023-05-15T23:00:05.345Z,20269.13
2023-05-15T23:02:34.197Z,20248.78
2023-05-15T23:05:02.402Z,20250.81
2023-05-15T23:07:32.128Z,20283.34
2023-05-15T23:10:00.284Z,20236.59
2023-05-15T23:12:28.494Z,20252.84
2023-05-15T23:14:56.646Z,20197.97
2023-05-15T23:17:26.381Z,20214.22
2023-05-15T23:19:54.840Z,20177.66
2023-05-15T23:22:22.984Z,20212.19
2023-05-15T23:24:52.554Z,20204.06
2023-05-15T23:27:20.692Z,20216.25
2023-05-15T23:29:48.871Z,20181.72
2023-05-15T23:32:17.023Z,20200.00
2023-05-15T23:34:45.096Z,20169.53
2023-05-15T23:37:13.202Z,20189.84
2023-05-15T23:39:41.324Z,20159.34
2023-05-15T23:42:12.283Z,20151.22
2023-05-15T23:44:40.433Z,20137.00
2023-05-15T23:47:09.903Z,20153.25
2023-05-15T23:49:38.009Z,20110.56
2023-05-15T23:52:07.672Z,20104.47
2023-05-15T23:54:35.868Z,20120.75
2023-05-15T23:57:03.993Z,20100.41
2023-05-15T23:59:33.511Z,20067.88
